Majesnik — KG217S — position and weather

sailwx.info

Track history (hours):
 
Tides and Currents Weather Stations Pressure Air Temp Water Temp Dewpoint Dewpoint Depression Visibility Wind Speed Wind Dir Waves Ship Positions

Majesnik

Last reported at 2018-Feb-15 05:56 UTC. Time now 2018-Feb-21 15:41 UTC.
Position S 27°58' E 153°25'.

Length 17 m.

Type: Pleasure craft. MMSI: 503060390.

Date/timePositionNaut miles runAvg speedWind from/ knotsBaromVisibWave heightAir tempDewpointWater temp
2018-Feb-15 05:56S 27°58' E 153°25'  
2018-Feb-12 22:38S 27°58' E 153°26'0 3.3
2018-Feb-12 22:30S 27°58' E 153°25'611.4
2018-Feb-12 22:00S 27°52' E 153°24'3 5.5
2018-Feb-12 21:30S 27°51' E 153°21'1 2.2
2018-Feb-12 20:55S 27°52' E 153°20'  
2018-Feb-08 14:30S 27°52' E 153°20'0 0.0
2018-Feb-08 13:30S 27°52' E 153°20'0 0.0
2018-Feb-08 12:00S 27°52' E 153°20'0 0.0
2018-Feb-08 11:30S 27°52' E 153°20'0 0.0
2018-Feb-08 11:00S 27°52' E 153°20'0 0.0
2018-Feb-08 09:30S 27°52' E 153°20'0 0.0
2018-Feb-08 09:00S 27°52' E 153°20'0 0.0
2018-Feb-08 07:00S 27°52' E 153°20'0 0.0
2018-Feb-08 06:30S 27°52' E 153°20'0 0.0
2018-Feb-08 06:00S 27°52' E 153°20'0 0.0
2018-Feb-08 05:30S 27°52' E 153°20'0 0.0
2018-Feb-08 05:00S 27°52' E 153°20'0 0.0
2018-Feb-08 01:28S 27°52' E 153°20'0 0.0
2018-Feb-08 00:58S 27°52' E 153°20'0 0.0
2018-Feb-08 00:28S 27°52' E 153°20'0 0.0
2018-Feb-07 23:58S 27°52' E 153°20'0 0.0
2018-Feb-07 23:28S 27°52' E 153°20'0 0.0
2018-Feb-07 22:58S 27°52' E 153°20'0 0.0
2018-Feb-07 22:28S 27°52' E 153°20'0 0.0
2018-Feb-07 21:58S 27°52' E 153°20'0 0.0
2018-Feb-07 21:28S 27°52' E 153°20'0 0.0
2018-Feb-07 09:28S 27°52' E 153°20'0 0.0
2018-Feb-07 08:55S 27°52' E 153°20'0 0.0
2018-Feb-07 08:28S 27°52' E 153°20'0 0.0
2018-Feb-07 07:58S 27°52' E 153°20'0 0.0
2018-Feb-07 07:28S 27°52' E 153°20'0 0.0
2018-Feb-07 06:58S 27°52' E 153°20'0 0.0
2018-Feb-07 06:28S 27°52' E 153°20'0 0.0
2018-Feb-07 05:55S 27°52' E 153°20'0 0.0
2018-Feb-07 05:30S 27°52' E 153°20'0 0.0
2018-Feb-07 05:00S 27°52' E 153°20'0 0.1
2018-Feb-07 04:30S 27°52' E 153°20'0 0.0
2018-Feb-07 04:00S 27°52' E 153°20'0 0.0
2018-Feb-07 03:24S 27°52' E 153°20'0 0.0
2018-Feb-07 03:00S 27°52' E 153°20'2 4.7
2018-Feb-07 02:30S 27°51' E 153°23'3 5.4
2018-Feb-07 02:00S 27°54' E 153°24'3 6.1
2018-Feb-07 01:30S 27°51' E 153°24'2 4.6
2018-Feb-07 01:00S 27°53' E 153°24'1 1.4
2018-Feb-07 00:30S 27°54' E 153°24'3 5.8
2018-Feb-07 00:00S 27°51' E 153°23'2 0.1
2018-Feb-06 05:36S 27°52' E 153°20'0 0.0
2018-Feb-06 05:30S 27°52' E 153°20'1 2.6
2018-Feb-06 05:00S 27°51' E 153°21'3 5.4
2018-Feb-06 04:30S 27°52' E 153°24'1 2.0
2018-Feb-06 03:59S 27°51' E 153°24'1 1.9
2018-Feb-06 03:25S 27°52' E 153°25'2 4.5
2018-Feb-06 03:00S 27°51' E 153°23'2 3.0
2018-Feb-06 02:30S 27°52' E 153°21'1 1.0
2018-Feb-06 01:48S 27°52' E 153°20'0 0.0
2018-Feb-06 01:22S 27°52' E 153°20'0 0.0
2018-Feb-06 00:50S 27°52' E 153°20'0 0.0
2018-Feb-06 00:28S 27°52' E 153°20'0 0.2
2018-Feb-06 00:00S 27°52' E 153°20'0 0.1
2018-Feb-05 23:30S 27°52' E 153°20'0 0.0
2018-Feb-05 22:57S 27°52' E 153°20'0 0.0
2018-Feb-05 22:00S 27°52' E 153°20'0 0.0
2018-Feb-05 20:58S 27°52' E 153°20'  
Track history (hours):
 
Tides and Currents Weather Stations Pressure Air Temp Water Temp Dewpoint Dewpoint Depression Visibility Wind Speed Wind Dir Waves Ship Positions

Majesnik

Last reported at 2018-Feb-15 05:56 UTC. Time now 2018-Feb-21 15:41 UTC.
Position S 27°58' E 153°25'.

Length 17 m.

Type: Pleasure craft. MMSI: 503060390.

Date/timePositionNaut miles runAvg speedWind from/ knotsBaromVisibWave heightAir tempDewpointWater temp
2018-Feb-15 05:56S 27°58' E 153°25'  
2018-Feb-12 22:38S 27°58' E 153°26'0 3.3
2018-Feb-12 22:30S 27°58' E 153°25'611.4
2018-Feb-12 22:00S 27°52' E 153°24'3 5.5
2018-Feb-12 21:30S 27°51' E 153°21'1 2.2
2018-Feb-12 20:55S 27°52' E 153°20'  
2018-Feb-08 14:30S 27°52' E 153°20'0 0.0
2018-Feb-08 13:30S 27°52' E 153°20'0 0.0
2018-Feb-08 12:00S 27°52' E 153°20'0 0.0
2018-Feb-08 11:30S 27°52' E 153°20'0 0.0
2018-Feb-08 11:00S 27°52' E 153°20'0 0.0
2018-Feb-08 09:30S 27°52' E 153°20'0 0.0
2018-Feb-08 09:00S 27°52' E 153°20'0 0.0
2018-Feb-08 07:00S 27°52' E 153°20'0 0.0
2018-Feb-08 06:30S 27°52' E 153°20'0 0.0
2018-Feb-08 06:00S 27°52' E 153°20'0 0.0
2018-Feb-08 05:30S 27°52' E 153°20'0 0.0
2018-Feb-08 05:00S 27°52' E 153°20'0 0.0
2018-Feb-08 01:28S 27°52' E 153°20'0 0.0
2018-Feb-08 00:58S 27°52' E 153°20'0 0.0
2018-Feb-08 00:28S 27°52' E 153°20'0 0.0
2018-Feb-07 23:58S 27°52' E 153°20'0 0.0
2018-Feb-07 23:28S 27°52' E 153°20'0 0.0
2018-Feb-07 22:58S 27°52' E 153°20'0 0.0
2018-Feb-07 22:28S 27°52' E 153°20'0 0.0
2018-Feb-07 21:58S 27°52' E 153°20'0 0.0
2018-Feb-07 21:28S 27°52' E 153°20'0 0.0
2018-Feb-07 09:28S 27°52' E 153°20'0 0.0
2018-Feb-07 08:55S 27°52' E 153°20'0 0.0
2018-Feb-07 08:28S 27°52' E 153°20'0 0.0
2018-Feb-07 07:58S 27°52' E 153°20'0 0.0
2018-Feb-07 07:28S 27°52' E 153°20'0 0.0
2018-Feb-07 06:58S 27°52' E 153°20'0 0.0
2018-Feb-07 06:28S 27°52' E 153°20'0 0.0
2018-Feb-07 05:55S 27°52' E 153°20'0 0.0
2018-Feb-07 05:30S 27°52' E 153°20'0 0.0
2018-Feb-07 05:00S 27°52' E 153°20'0 0.1
2018-Feb-07 04:30S 27°52' E 153°20'0 0.0
2018-Feb-07 04:00S 27°52' E 153°20'0 0.0
2018-Feb-07 03:24S 27°52' E 153°20'0 0.0
2018-Feb-07 03:00S 27°52' E 153°20'2 4.7
2018-Feb-07 02:30S 27°51' E 153°23'3 5.4
2018-Feb-07 02:00S 27°54' E 153°24'3 6.1
2018-Feb-07 01:30S 27°51' E 153°24'2 4.6
2018-Feb-07 01:00S 27°53' E 153°24'1 1.4
2018-Feb-07 00:30S 27°54' E 153°24'3 5.8
2018-Feb-07 00:00S 27°51' E 153°23'2 0.1
2018-Feb-06 05:36S 27°52' E 153°20'0 0.0
2018-Feb-06 05:30S 27°52' E 153°20'1 2.6
2018-Feb-06 05:00S 27°51' E 153°21'3 5.4
2018-Feb-06 04:30S 27°52' E 153°24'1 2.0
2018-Feb-06 03:59S 27°51' E 153°24'1 1.9
2018-Feb-06 03:25S 27°52' E 153°25'2 4.5
2018-Feb-06 03:00S 27°51' E 153°23'2 3.0
2018-Feb-06 02:30S 27°52' E 153°21'1 1.0
2018-Feb-06 01:48S 27°52' E 153°20'0 0.0
2018-Feb-06 01:22S 27°52' E 153°20'0 0.0
2018-Feb-06 00:50S 27°52' E 153°20'0 0.0
2018-Feb-06 00:28S 27°52' E 153°20'0 0.2
2018-Feb-06 00:00S 27°52' E 153°20'0 0.1
2018-Feb-05 23:30S 27°52' E 153°20'0 0.0
2018-Feb-05 22:57S 27°52' E 153°20'0 0.0
2018-Feb-05 22:00S 27°52' E 153°20'0 0.0
2018-Feb-05 20:58S 27°52' E 153°20'  

Dump ship's entire track history